Ana Sayfa
METAR-TAF:

METAR-TAF

Havaalanları :

Tebriz Havalimanı

Tebriz, İran

Enlem: 38-05N, Boylam: 046-17E, yükseklik: 1367 m

Güncel hava durumu gözlemi

Rapor saat 22:30 UTC de 35 dakika önce yapıldı.
Rüzgar doğu/kuzeydoğudan 8 kt
Sıcaklık -10°C
Nem 72%
Basınç 1026 hPa
Görüş mesafesi 10 km veya daha fazla
1500 m altında bulut yok ve kümülonimbus yok

METAR: OITT 262230Z 07008KT CAVOK M10/M14 Q1026 A3030

Saat: 02:35 (23:05 UTC)

Tahmin

Rapor saat 17:30 UTC de 5 saat ve 35 dakika önce yapıldı.
Ayın 26'si saat 18 UTC'den ayın 27'si saat 24 UTC'ye kadar geçerli Tahmin
Rüzgar batıdan 8 kt
Görüş mesafesi: 7000 m
3000 ft yükseklikte az bulutlu
Geçici
ayın 26'si saat 12 UTC'den ayın 26'si saat 16 UTC'ye kadar
3500 ft yükseklikte az bulutlu, Yükselen kümülüs.
10000 ft yükseklikte parçalı bulutlu

TAF: OITT 261730Z 2618/2724 28008KT 7000 FEW030 TEMPO 2612/2616 FEW035TCU SCT100

4.000'den fazla havaalanı için hava durumu gözlemleri ve tahminleri (METAR ve TAF raporları).

Kullanılabilir istasyonlar harita üzerinde sarı ve kırmızı noktalarla gösterilir.

İstasyonun adını görmek için fareyi noktanın üzerinde gezdirin.

Sonrasında hava gözlem ve tahminlerini görmek için tıklayın.

Haritayı değiştirmek için: yaklaştırmak için siyah artı işaretli yeşil düğmeye ve uzaklaştırmak için de eksi işaretli düğmeye hızla tıklayın; bitişik haritalar için yeşil okları kullanın.


METAR-TAF: